createdAt,value
2022-08-03T00:05:03.427Z,101186.97
2022-08-03T00:10:19.458Z,101183.41
2022-08-03T00:15:35.203Z,101185.47
2022-08-03T00:20:50.130Z,101179.84
2022-08-03T00:26:05.152Z,101188.28
2022-08-03T00:31:32.212Z,101176.31
2022-08-03T00:36:55.140Z,101165.06
2022-08-03T00:42:10.201Z,101160.00
2022-08-03T00:47:25.478Z,101169.94
2022-08-03T00:52:41.213Z,101169.94
2022-08-03T00:57:56.158Z,101165.06
2022-08-03T01:03:11.460Z,101162.81
2022-08-03T01:08:27.456Z,101154.38
2022-08-03T01:14:03.418Z,101157.94
2022-08-03T01:19:18.136Z,101157.94
2022-08-03T01:24:33.132Z,101152.13
2022-08-03T01:29:48.221Z,101150.06
2022-08-03T01:35:03.464Z,101152.88
2022-08-03T01:40:19.493Z,101152.88
2022-08-03T01:45:35.361Z,101143.72
2022-08-03T01:50:51.458Z,101146.53
2022-08-03T01:56:06.933Z,101148.56
2022-08-03T02:01:22.458Z,101139.38
2022-08-03T02:07:01.911Z,101135.81
2022-08-03T02:12:13.621Z,101133.00
2022-08-03T02:17:39.278Z,101137.84
2022-08-03T02:22:55.452Z,101138.63
2022-08-03T02:28:10.919Z,101131.47
2022-08-03T02:33:26.466Z,101134.28
2022-08-03T02:38:42.498Z,101132.06
2022-08-03T02:44:07.066Z,101125.88
2022-08-03T02:49:40.814Z,101125.88
2022-08-03T02:54:58.132Z,101126.44
2022-08-03T03:00:13.244Z,101116.72
2022-08-03T03:05:52.318Z,101108.84
2022-08-03T03:11:11.163Z,101112.41
2022-08-03T03:16:26.195Z,101102.47
2022-08-03T03:21:41.174Z,101102.47
2022-08-03T03:26:56.243Z,101111.63
2022-08-03T03:32:11.460Z,101103.78
2022-08-03T03:37:27.242Z,101104.53
2022-08-03T03:42:42.566Z,101100.22
2022-08-03T03:47:58.433Z,101103.03
2022-08-03T03:53:14.463Z,101097.44
2022-08-03T03:58:31.502Z,101102.28
2022-08-03T04:03:47.177Z,101101.50
2022-08-03T04:09:02.464Z,101102.28
2022-08-03T04:14:18.469Z,101095.13
2022-08-03T04:19:34.536Z,101109.19
2022-08-03T04:24:50.521Z,101116.88
2022-08-03T04:30:06.166Z,101112.00
2022-08-03T04:35:21.482Z,101112.56
2022-08-03T04:40:56.208Z,101116.13
2022-08-03T04:46:11.493Z,101116.13
2022-08-03T04:51:27.150Z,101119.50
2022-08-03T04:56:42.191Z,101125.88
2022-08-03T05:01:57.218Z,101128.69
2022-08-03T05:07:13.471Z,101135.59
2022-08-03T05:12:32.578Z,101124.19
2022-08-03T05:17:48.480Z,101135.59
2022-08-03T05:23:04.455Z,101144.78
2022-08-03T05:28:20.182Z,101144.78
2022-08-03T05:33:35.183Z,101139.72
2022-08-03T05:38:50.193Z,101134.09
2022-08-03T05:44:05.252Z,101139.72
2022-08-03T05:49:20.525Z,101138.41
2022-08-03T05:54:56.441Z,101140.69
2022-08-03T06:00:11.221Z,101152.66
2022-08-03T06:05:28.191Z,101149.84
2022-08-03T06:10:43.460Z,101150.59
2022-08-03T06:15:59.522Z,101149.84
2022-08-03T06:21:16.262Z,101152.09
2022-08-03T06:26:32.178Z,101154.91
2022-08-03T06:31:47.462Z,101156.44
2022-08-03T06:37:02.953Z,101151.56
2022-08-03T06:42:18.588Z,101165.63
2022-08-03T06:47:36.187Z,101152.28
2022-08-03T06:52:51.180Z,101160.72
2022-08-03T06:58:06.221Z,101162.97
2022-08-03T07:03:21.267Z,101153.78
2022-08-03T07:08:36.193Z,101168.03
2022-08-03T07:13:51.193Z,101156.06
2022-08-03T07:19:05.965Z,101161.69
2022-08-03T07:24:21.237Z,101169.53
2022-08-03T07:29:36.276Z,101173.09
2022-08-03T07:34:51.494Z,101176.69
2022-08-03T07:40:07.197Z,101187.13
2022-08-03T07:45:22.245Z,101185.88
2022-08-03T07:50:37.204Z,101191.47
2022-08-03T07:55:52.513Z,101184.53
2022-08-03T08:01:08.282Z,101193.72
2022-08-03T08:06:24.196Z,101176.84
2022-08-03T08:11:40.244Z,101176.84
2022-08-03T08:16:55.533Z,101178.91
2022-08-03T08:22:11.174Z,101174.78
2022-08-03T08:27:27.180Z,101180.41
2022-08-03T08:32:42.222Z,101184.72
2022-08-03T08:37:57.508Z,101172.16
2022-08-03T08:43:14.211Z,101180.59
2022-08-03T08:48:29.478Z,101175.72
2022-08-03T08:53:45.201Z,101181.34
2022-08-03T08:59:00.481Z,101187.53
2022-08-03T09:04:16.174Z,101187.16
2022-08-03T09:10:10.998Z,101189.97
2022-08-03T09:15:16.901Z,101188.66
2022-08-03T09:20:33.208Z,101188.66
2022-08-03T09:25:48.189Z,101183.06
2022-08-03T09:31:03.554Z,101193.00
2022-08-03T09:36:19.179Z,101190.94
2022-08-03T09:41:34.219Z,101182.66
2022-08-03T09:46:50.029Z,101185.47
2022-08-03T09:52:31.641Z,101189.03
2022-08-03T09:57:40.179Z,101178.56
2022-08-03T10:03:00.214Z,101194.66
2022-08-03T10:08:15.533Z,101198.44
2022-08-03T10:13:31.495Z,101193.56
2022-08-03T10:18:47.557Z,101196.56
2022-08-03T10:24:03.208Z,101190.94
2022-08-03T10:29:18.193Z,101181.94
2022-08-03T10:34:33.505Z,101177.78
2022-08-03T10:39:49.500Z,101163.22
2022-08-03T10:45:05.022Z,101164.69
2022-08-03T10:50:20.509Z,101161.31
2022-08-03T10:55:38.565Z,101159.28
2022-08-03T11:00:54.247Z,101157.94
2022-08-03T11:06:09.249Z,101154.56
2022-08-03T11:11:25.189Z,101148.41
2022-08-03T11:16:40.516Z,101151.97
2022-08-03T11:21:56.545Z,101152.88
2022-08-03T11:27:12.542Z,101153.63
2022-08-03T11:32:28.225Z,101160.19
2022-08-03T11:37:43.245Z,101154.56
2022-08-03T11:43:18.207Z,101154.78
2022-08-03T11:48:33.196Z,101163.38
2022-08-03T11:53:48.201Z,101156.47
2022-08-03T11:59:20.079Z,101154.41
2022-08-03T12:04:37.226Z,101157.41
2022-08-03T12:09:52.250Z,101156.81
2022-08-03T12:15:07.342Z,101156.28
2022-08-03T12:20:34.766Z,101155.69
2022-08-03T12:25:51.213Z,101145.19
2022-08-03T12:31:06.040Z,101153.06
2022-08-03T12:36:22.193Z,101147.66
2022-08-03T12:41:37.509Z,101151.97
2022-08-03T12:46:53.214Z,101152.13
2022-08-03T12:52:07.997Z,101153.06
2022-08-03T12:57:23.559Z,101163.78
2022-08-03T13:02:39.615Z,101157.56
2022-08-03T13:08:02.536Z,101154.38
2022-08-03T13:13:18.215Z,101161.53
2022-08-03T13:18:33.262Z,101158.88
2022-08-03T13:23:49.220Z,101147.78
2022-08-03T13:29:04.548Z,101153.63
2022-08-03T13:34:23.625Z,101150.78
2022-08-03T13:39:57.682Z,101160.94
2022-08-03T13:45:14.222Z,101137.09
2022-08-03T13:50:29.221Z,101149.09
2022-08-03T13:55:44.482Z,101148.53
2022-08-03T14:01:00.215Z,101142.91
2022-08-03T14:06:15.207Z,101138.41
2022-08-03T14:12:08.379Z,101145.53
2022-08-03T14:17:05.237Z,101137.84
2022-08-03T14:22:20.262Z,101133.69
2022-08-03T14:27:35.243Z,101123.19
2022-08-03T14:32:50.263Z,101127.69
2022-08-03T14:38:05.232Z,101121.47
2022-08-03T14:43:20.056Z,101117.34
2022-08-03T14:50:30.829Z,101106.09
2022-08-03T14:54:10.272Z,101108.34
2022-08-03T14:59:25.263Z,101101.41
2022-08-03T15:04:40.227Z,101100.09
2022-08-03T15:09:55.232Z,101098.78
2022-08-03T15:15:10.556Z,101093.31
2022-08-03T15:20:40.970Z,101089.91
2022-08-03T15:26:04.032Z,101085.81
2022-08-03T15:31:34.558Z,101092.22
2022-08-03T15:36:50.542Z,101077.53
2022-08-03T15:42:06.316Z,101078.88
2022-08-03T15:47:21.768Z,101065.56
2022-08-03T15:52:37.288Z,101073.78
2022-08-03T15:59:04.854Z,101072.31
2022-08-03T16:03:27.230Z,101058.97
2022-08-03T16:08:42.210Z,101067.41
2022-08-03T16:14:13.636Z,101055.06
2022-08-03T16:19:33.461Z,101063.13
2022-08-03T16:24:49.228Z,101062.38
2022-08-03T16:30:04.229Z,101053.16
2022-08-03T16:35:21.349Z,101053.91
2022-08-03T16:40:37.551Z,101056.72
2022-08-03T16:45:53.317Z,101046.97
2022-08-03T16:51:08.367Z,101048.47
2022-08-03T16:56:23.300Z,101042.06
2022-08-03T17:01:38.629Z,101048.47
2022-08-03T17:06:54.269Z,101047.16
2022-08-03T17:12:10.942Z,101050.00
2022-08-03T17:17:26.251Z,101042.28
2022-08-03T17:22:41.217Z,101044.50
2022-08-03T17:28:50.363Z,101039.63
2022-08-03T17:33:35.331Z,101045.28
2022-08-03T17:38:51.259Z,101049.59
2022-08-03T17:44:15.808Z,101051.06
2022-08-03T17:49:43.322Z,101043.38
2022-08-03T17:55:56.101Z,101049.75
2022-08-03T18:00:33.225Z,101054.09
2022-08-03T18:06:10.641Z,101045.66
2022-08-03T18:11:35.463Z,101049.19
2022-08-03T18:16:51.524Z,101045.81
2022-08-03T18:22:09.949Z,101046.56
2022-08-03T18:27:48.037Z,101045.22
2022-08-03T18:34:18.465Z,101052.34
2022-08-03T18:38:37.258Z,101044.66
2022-08-03T18:44:08.747Z,101048.22
2022-08-03T18:49:30.557Z,101048.22
2022-08-03T18:55:02.932Z,101044.84
2022-08-03T19:00:24.306Z,101042.78
2022-08-03T19:06:02.411Z,101048.41
2022-08-03T19:11:21.220Z,101049.16
2022-08-03T19:16:43.555Z,101047.84
2022-08-03T19:22:00.273Z,101048.56
2022-08-03T19:27:16.084Z,101057.78
2022-08-03T19:32:31.295Z,101063.41
2022-08-03T19:37:46.303Z,101062.09
2022-08-03T19:43:01.292Z,101060.78
2022-08-03T19:48:17.262Z,101072.03
2022-08-03T19:53:35.352Z,101061.50
2022-08-03T19:59:28.265Z,101062.09
2022-08-03T20:04:43.245Z,101062.84
2022-08-03T20:09:58.250Z,101064.91
2022-08-03T20:15:13.571Z,101060.03
2022-08-03T20:20:33.547Z,101069.22
2022-08-03T20:25:58.700Z,101059.28
2022-08-03T20:31:14.522Z,101042.38
2022-08-03T20:36:30.358Z,101057.19
2022-08-03T20:41:45.277Z,101049.50
2022-08-03T20:47:00.948Z,101042.22
2022-08-03T20:52:18.434Z,101051.56
2022-08-03T20:57:34.058Z,101043.13
2022-08-03T21:02:55.551Z,101046.69
2022-08-03T21:08:13.575Z,101035.25
2022-08-03T21:13:31.564Z,101036.00
2022-08-03T21:18:47.301Z,101026.81
2022-08-03T21:24:02.328Z,101023.97
2022-08-03T21:29:17.541Z,101016.88
2022-08-03T21:34:33.564Z,101018.19
2022-08-03T21:39:50.462Z,101018.94
2022-08-03T21:45:06.263Z,101017.44
2022-08-03T21:50:21.665Z,101015.38
2022-08-03T21:55:37.294Z,101006.19
2022-08-03T22:00:52.543Z,101005.44
2022-08-03T22:06:08.245Z,101010.28
2022-08-03T22:11:35.241Z,101001.84
2022-08-03T22:16:50.283Z,100986.28
2022-08-03T22:22:05.305Z,100998.28
2022-08-03T22:27:20.472Z,101001.69
2022-08-03T22:32:36.546Z,101003.75
2022-08-03T22:37:52.257Z,101000.94
2022-08-03T22:43:08.255Z,100998.13
2022-08-03T22:48:23.366Z,100997.38
2022-08-03T22:53:38.571Z,100980.47
2022-08-03T22:58:54.255Z,100982.56
2022-08-03T23:04:09.298Z,100974.13
2022-08-03T23:09:24.275Z,100970.56
2022-08-03T23:14:39.247Z,100970.56
2022-08-03T23:19:54.592Z,100974.69
2022-08-03T23:25:10.592Z,100971.13
2022-08-03T23:30:31.267Z,100968.31
2022-08-03T23:36:27.739Z,100968.31
2022-08-03T23:41:22.244Z,100966.84
2022-08-03T23:46:37.261Z,100966.84
2022-08-03T23:51:52.546Z,100954.78
2022-08-03T23:57:08.580Z,100949.94
